sensor_id;sensor_type;location;lat;lon;timestamp;pressure;altitude;pressure_sealevel;temperature;humidity
21821;BME280;11073;48.586;12.066;2022-12-18T00:00:22;97591.94;;;-3.32;68.75
21821;BME280;11073;48.586;12.066;2022-12-18T00:02:55;97585.41;;;-3.28;68.67
21821;BME280;11073;48.586;12.066;2022-12-18T00:05:24;97592.88;;;-3.22;68.82
21821;BME280;11073;48.586;12.066;2022-12-18T00:07:53;97538.91;;;-3.53;68.71
21821;BME280;11073;48.586;12.066;2022-12-18T00:10:22;97587.44;;;-3.20;68.62
21821;BME280;11073;48.586;12.066;2022-12-18T00:12:51;97576.47;;;-3.16;68.59
21821;BME280;11073;48.586;12.066;2022-12-18T00:15:20;97579.25;;;-3.17;68.58
21821;BME280;11073;48.586;12.066;2022-12-18T00:17:49;97573.97;;;-3.17;68.76
21821;BME280;11073;48.586;12.066;2022-12-18T00:20:19;97577.66;;;-3.09;68.86
21821;BME280;11073;48.586;12.066;2022-12-18T00:22:53;97572.22;;;-3.07;68.94
21821;BME280;11073;48.586;12.066;2022-12-18T00:25:22;97590.47;;;-2.93;68.94
21821;BME280;11073;48.586;12.066;2022-12-18T00:27:51;97585.88;;;-2.91;68.83
21821;BME280;11073;48.586;12.066;2022-12-18T00:30:20;97599.81;;;-3.10;68.69
21821;BME280;11073;48.586;12.066;2022-12-18T00:32:49;97604.50;;;-3.13;68.72
21821;BME280;11073;48.586;12.066;2022-12-18T00:35:19;97612.09;;;-3.09;68.90
21821;BME280;11073;48.586;12.066;2022-12-18T00:37:48;97615.94;;;-3.01;69.09
21821;BME280;11073;48.586;12.066;2022-12-18T00:40:17;97624.34;;;-2.96;69.07
21821;BME280;11073;48.586;12.066;2022-12-18T00:42:45;97618.78;;;-2.93;68.96
21821;BME280;11073;48.586;12.066;2022-12-18T00:45:23;97619.59;;;-2.82;69.12
21821;BME280;11073;48.586;12.066;2022-12-18T00:47:53;97624.38;;;-2.75;69.03
21821;BME280;11073;48.586;12.066;2022-12-18T00:50:24;97619.47;;;-2.80;68.93
21821;BME280;11073;48.586;12.066;2022-12-18T00:52:53;97619.56;;;-3.02;68.91
21821;BME280;11073;48.586;12.066;2022-12-18T00:55:22;97619.34;;;-3.11;69.15
21821;BME280;11073;48.586;12.066;2022-12-18T00:57:51;97617.97;;;-3.05;69.21
21821;BME280;11073;48.586;12.066;2022-12-18T01:00:20;97619.38;;;-2.90;69.39
21821;BME280;11073;48.586;12.066;2022-12-18T01:02:49;97613.47;;;-2.82;69.37
21821;BME280;11073;48.586;12.066;2022-12-18T01:05:18;97612.59;;;-2.83;69.23
21821;BME280;11073;48.586;12.066;2022-12-18T01:07:48;97575.56;;;-3.05;69.23
21821;BME280;11073;48.586;12.066;2022-12-18T01:10:18;97613.56;;;-2.84;69.36
21821;BME280;11073;48.586;12.066;2022-12-18T01:12:47;97612.84;;;-2.86;69.29
21821;BME280;11073;48.586;12.066;2022-12-18T01:15:17;97616.91;;;-3.02;69.26
21821;BME280;11073;48.586;12.066;2022-12-18T01:17:47;97617.31;;;-3.18;69.60
21821;BME280;11073;48.586;12.066;2022-12-18T01:20:15;97608.50;;;-3.19;69.77
21821;BME280;11073;48.586;12.066;2022-12-18T01:22:45;97611.75;;;-3.15;69.64
21821;BME280;11073;48.586;12.066;2022-12-18T01:25:15;97614.13;;;-3.12;69.79
21821;BME280;11073;48.586;12.066;2022-12-18T01:27:44;97615.50;;;-3.18;69.95
21821;BME280;11073;48.586;12.066;2022-12-18T01:30:13;97631.00;;;-3.13;69.98
21821;BME280;11073;48.586;12.066;2022-12-18T01:32:42;97637.63;;;-3.19;70.02
21821;BME280;11073;48.586;12.066;2022-12-18T01:35:10;97639.16;;;-3.05;70.10
21821;BME280;11073;48.586;12.066;2022-12-18T01:37:39;97649.19;;;-3.09;70.01
21821;BME280;11073;48.586;12.066;2022-12-18T01:40:09;97621.06;;;-3.32;70.02
21821;BME280;11073;48.586;12.066;2022-12-18T01:42:40;97654.41;;;-3.18;70.17
21821;BME280;11073;48.586;12.066;2022-12-18T01:45:25;97656.66;;;-3.14;70.19
21821;BME280;11073;48.586;12.066;2022-12-18T01:47:56;97649.19;;;-3.09;70.38
21821;BME280;11073;48.586;12.066;2022-12-18T01:50:30;97659.78;;;-3.09;70.26
21821;BME280;11073;48.586;12.066;2022-12-18T01:53:04;97648.34;;;-3.09;70.38
21821;BME280;11073;48.586;12.066;2022-12-18T01:55:38;97649.06;;;-3.07;70.38
21821;BME280;11073;48.586;12.066;2022-12-18T01:58:11;97655.56;;;-3.00;70.37
21821;BME280;11073;48.586;12.066;2022-12-18T02:00:39;97659.66;;;-2.96;70.40
21821;BME280;11073;48.586;12.066;2022-12-18T02:03:09;97621.47;;;-3.05;70.46
21821;BME280;11073;48.586;12.066;2022-12-18T02:05:44;97654.44;;;-2.86;70.33
21821;BME280;11073;48.586;12.066;2022-12-18T02:08:20;97652.81;;;-2.78;70.16
21821;BME280;11073;48.586;12.066;2022-12-18T02:10:57;97656.44;;;-2.79;70.39
21821;BME280;11073;48.586;12.066;2022-12-18T02:13:39;97634.53;;;-2.81;70.42
21821;BME280;11073;48.586;12.066;2022-12-18T02:16:14;97655.56;;;-2.68;70.27
21821;BME280;11073;48.586;12.066;2022-12-18T02:18:50;97649.66;;;-2.71;70.30
21821;BME280;11073;48.586;12.066;2022-12-18T02:21:27;97663.91;;;-2.72;70.28
21821;BME280;11073;48.586;12.066;2022-12-18T02:24:18;97669.34;;;-2.74;70.13
21821;BME280;11073;48.586;12.066;2022-12-18T02:26:56;97656.09;;;-2.74;70.38
21821;BME280;11073;48.586;12.066;2022-12-18T02:29:33;97671.84;;;-2.72;70.19
21821;BME280;11073;48.586;12.066;2022-12-18T02:32:08;97667.72;;;-2.65;70.25
21821;BME280;11073;48.586;12.066;2022-12-18T02:34:39;97670.19;;;-2.73;70.29
21821;BME280;11073;48.586;12.066;2022-12-18T02:37:16;97654.28;;;-2.85;70.19
21821;BME280;11073;48.586;12.066;2022-12-18T02:39:49;97666.22;;;-2.79;70.26
21821;BME280;11073;48.586;12.066;2022-12-18T02:42:19;97629.41;;;-3.05;70.31
21821;BME280;11073;48.586;12.066;2022-12-18T02:44:50;97659.31;;;-3.02;70.18
21821;BME280;11073;48.586;12.066;2022-12-18T02:47:27;97673.69;;;-2.84;70.40
21821;BME280;11073;48.586;12.066;2022-12-18T02:50:03;97683.94;;;-2.80;70.36
21821;BME280;11073;48.586;12.066;2022-12-18T02:52:40;97674.28;;;-2.81;70.40
21821;BME280;11073;48.586;12.066;2022-12-18T02:55:25;97685.09;;;-2.72;70.40
21821;BME280;11073;48.586;12.066;2022-12-18T02:58:06;97682.19;;;-2.69;70.44
21821;BME280;11073;48.586;12.066;2022-12-18T03:00:43;97675.34;;;-2.72;70.41
21821;BME280;11073;48.586;12.066;2022-12-18T03:03:22;97677.53;;;-2.77;70.30
21821;BME280;11073;48.586;12.066;2022-12-18T03:05:56;97661.88;;;-2.80;70.32
21821;BME280;11073;48.586;12.066;2022-12-18T03:08:29;97672.00;;;-2.74;70.18
21821;BME280;11073;48.586;12.066;2022-12-18T03:11:02;97672.63;;;-2.82;70.25
21821;BME280;11073;48.586;12.066;2022-12-18T03:13:36;97650.81;;;-2.85;70.42
21821;BME280;11073;48.586;12.066;2022-12-18T03:16:10;97657.06;;;-2.75;70.44
21821;BME280;11073;48.586;12.066;2022-12-18T03:18:45;97666.41;;;-2.71;70.41
21821;BME280;11073;48.586;12.066;2022-12-18T03:21:17;97654.84;;;-2.70;70.40
21821;BME280;11073;48.586;12.066;2022-12-18T03:23:51;97627.94;;;-2.97;70.25
21821;BME280;11073;48.586;12.066;2022-12-18T03:26:25;97656.47;;;-2.90;70.31
21821;BME280;11073;48.586;12.066;2022-12-18T03:29:03;97645.63;;;-2.87;70.49
21821;BME280;11073;48.586;12.066;2022-12-18T03:31:37;97649.00;;;-2.85;70.47
21821;BME280;11073;48.586;12.066;2022-12-18T03:34:10;97637.13;;;-3.01;70.36
21821;BME280;11073;48.586;12.066;2022-12-18T03:36:44;97628.13;;;-3.10;70.49
21821;BME280;11073;48.586;12.066;2022-12-18T03:39:13;97644.03;;;-3.10;70.51
21821;BME280;11073;48.586;12.066;2022-12-18T03:41:52;97616.00;;;-3.35;70.62
21821;BME280;11073;48.586;12.066;2022-12-18T03:44:35;97646.41;;;-3.07;70.72
21821;BME280;11073;48.586;12.066;2022-12-18T03:47:12;97656.78;;;-3.04;70.69
21821;BME280;11073;48.586;12.066;2022-12-18T03:49:48;97650.03;;;-2.97;70.88
21821;BME280;11073;48.586;12.066;2022-12-18T03:52:23;97630.22;;;-2.93;70.96
21821;BME280;11073;48.586;12.066;2022-12-18T03:54:56;97633.78;;;-2.83;70.74
21821;BME280;11073;48.586;12.066;2022-12-18T03:57:29;97638.16;;;-2.82;70.73
21821;BME280;11073;48.586;12.066;2022-12-18T04:00:04;97659.03;;;-2.88;70.72
21821;BME280;11073;48.586;12.066;2022-12-18T04:03:04;97659.84;;;-2.88;70.78
21821;BME280;11073;48.586;12.066;2022-12-18T04:05:42;97651.44;;;-2.93;70.80
21821;BME280;11073;48.586;12.066;2022-12-18T04:08:14;97657.00;;;-2.96;70.79
21821;BME280;11073;48.586;12.066;2022-12-18T04:10:50;97656.22;;;-2.87;70.78
21821;BME280;11073;48.586;12.066;2022-12-18T04:13:23;97660.47;;;-2.95;70.73
21821;BME280;11073;48.586;12.066;2022-12-18T04:15:53;97650.59;;;-2.93;70.81
21821;BME280;11073;48.586;12.066;2022-12-18T04:18:23;97646.00;;;-2.91;70.84
21821;BME280;11073;48.586;12.066;2022-12-18T04:20:53;97659.09;;;-2.79;70.88
21821;BME280;11073;48.586;12.066;2022-12-18T04:23:22;97660.56;;;-2.86;70.65
21821;BME280;11073;48.586;12.066;2022-12-18T04:25:53;97664.72;;;-3.04;70.65
21821;BME280;11073;48.586;12.066;2022-12-18T04:28:36;97659.44;;;-3.15;70.93
21821;BME280;11073;48.586;12.066;2022-12-18T04:31:06;97652.59;;;-3.18;70.94
21821;BME280;11073;48.586;12.066;2022-12-18T04:33:35;97659.69;;;-3.18;71.05
21821;BME280;11073;48.586;12.066;2022-12-18T04:36:06;97669.28;;;-3.06;71.31
21821;BME280;11073;48.586;12.066;2022-12-18T04:38:35;97661.13;;;-3.14;71.17
21821;BME280;11073;48.586;12.066;2022-12-18T04:41:08;97689.78;;;-2.97;71.33
21821;BME280;11073;48.586;12.066;2022-12-18T04:43:37;97683.38;;;-2.94;71.32
21821;BME280;11073;48.586;12.066;2022-12-18T04:46:08;97667.63;;;-3.07;71.31
21821;BME280;11073;48.586;12.066;2022-12-18T04:48:38;97676.41;;;-3.07;71.09
21821;BME280;11073;48.586;12.066;2022-12-18T04:51:07;97693.63;;;-3.01;71.28
21821;BME280;11073;48.586;12.066;2022-12-18T04:53:36;97681.22;;;-3.00;71.25
21821;BME280;11073;48.586;12.066;2022-12-18T04:56:07;97678.47;;;-3.10;71.07
21821;BME280;11073;48.586;12.066;2022-12-18T04:58:36;97689.78;;;-3.19;71.35
21821;BME280;11073;48.586;12.066;2022-12-18T05:01:07;97697.25;;;-3.13;71.57
21821;BME280;11073;48.586;12.066;2022-12-18T05:03:37;97700.16;;;-3.16;71.42
21821;BME280;11073;48.586;12.066;2022-12-18T05:06:06;97698.00;;;-3.11;71.58
21821;BME280;11073;48.586;12.066;2022-12-18T05:08:35;97691.31;;;-3.06;71.57
21821;BME280;11073;48.586;12.066;2022-12-18T05:11:06;97712.66;;;-3.07;71.57
21821;BME280;11073;48.586;12.066;2022-12-18T05:13:35;97714.22;;;-3.05;71.56
21821;BME280;11073;48.586;12.066;2022-12-18T05:16:08;97719.84;;;-2.98;71.70
21821;BME280;11073;48.586;12.066;2022-12-18T05:18:37;97702.06;;;-2.96;71.56
21821;BME280;11073;48.586;12.066;2022-12-18T05:21:05;97719.84;;;-2.87;71.52
21821;BME280;11073;48.586;12.066;2022-12-18T05:23:34;97725.91;;;-2.96;71.45
21821;BME280;11073;48.586;12.066;2022-12-18T05:26:05;97722.53;;;-3.09;71.39
21821;BME280;11073;48.586;12.066;2022-12-18T05:28:36;97719.28;;;-3.01;71.66
21821;BME280;11073;48.586;12.066;2022-12-18T05:31:05;97712.31;;;-3.02;71.69
21821;BME280;11073;48.586;12.066;2022-12-18T05:33:35;97712.75;;;-2.97;71.64
21821;BME280;11073;48.586;12.066;2022-12-18T05:36:06;97718.44;;;-3.02;71.62
21821;BME280;11073;48.586;12.066;2022-12-18T05:38:37;97712.44;;;-3.04;71.55
21821;BME280;11073;48.586;12.066;2022-12-18T05:41:07;97714.13;;;-3.03;71.69
21821;BME280;11073;48.586;12.066;2022-12-18T05:43:37;97688.94;;;-3.09;71.65
21821;BME280;11073;48.586;12.066;2022-12-18T05:46:08;97687.97;;;-3.08;71.75
21821;BME280;11073;48.586;12.066;2022-12-18T05:48:38;97710.22;;;-2.88;71.70
21821;BME280;11073;48.586;12.066;2022-12-18T05:51:09;97713.72;;;-2.87;71.72
21821;BME280;11073;48.586;12.066;2022-12-18T05:53:38;97717.41;;;-2.79;71.62
21821;BME280;11073;48.586;12.066;2022-12-18T05:56:09;97712.59;;;-2.85;71.61
21821;BME280;11073;48.586;12.066;2022-12-18T05:58:39;97720.38;;;-3.04;71.35
21821;BME280;11073;48.586;12.066;2022-12-18T06:01:10;97730.22;;;-2.95;71.46
21821;BME280;11073;48.586;12.066;2022-12-18T06:03:40;97715.75;;;-2.91;71.48
21821;BME280;11073;48.586;12.066;2022-12-18T06:06:14;97705.94;;;-3.22;71.36
21821;BME280;11073;48.586;12.066;2022-12-18T06:08:43;97711.84;;;-3.30;71.42
21821;BME280;11073;48.586;12.066;2022-12-18T06:11:16;97742.66;;;-3.07;71.66
21821;BME280;11073;48.586;12.066;2022-12-18T06:13:45;97740.00;;;-3.07;71.52
21821;BME280;11073;48.586;12.066;2022-12-18T06:16:14;97738.22;;;-3.17;71.66
21821;BME280;11073;48.586;12.066;2022-12-18T06:18:44;97733.75;;;-3.17;71.78
21821;BME280;11073;48.586;12.066;2022-12-18T06:21:13;97723.03;;;-3.26;71.72
21821;BME280;11073;48.586;12.066;2022-12-18T06:23:41;97741.31;;;-3.12;71.87
21821;BME280;11073;48.586;12.066;2022-12-18T06:26:12;97743.97;;;-3.01;71.74
21821;BME280;11073;48.586;12.066;2022-12-18T06:28:41;97752.03;;;-2.91;71.73
21821;BME280;11073;48.586;12.066;2022-12-18T06:31:10;97758.50;;;-2.84;71.79
21821;BME280;11073;48.586;12.066;2022-12-18T06:33:39;97744.91;;;-2.80;71.78
21821;BME280;11073;48.586;12.066;2022-12-18T06:36:12;97745.47;;;-2.76;71.54
21821;BME280;11073;48.586;12.066;2022-12-18T06:38:42;97747.28;;;-2.77;71.49
21821;BME280;11073;48.586;12.066;2022-12-18T06:41:13;97750.19;;;-2.80;71.54
21821;BME280;11073;48.586;12.066;2022-12-18T06:43:42;97752.38;;;-2.85;71.42
21821;BME280;11073;48.586;12.066;2022-12-18T06:46:11;97732.03;;;-2.95;71.55
21821;BME280;11073;48.586;12.066;2022-12-18T06:48:40;97749.72;;;-2.85;71.53
21821;BME280;11073;48.586;12.066;2022-12-18T06:51:10;97763.72;;;-2.94;71.42
21821;BME280;11073;48.586;12.066;2022-12-18T06:53:38;97758.91;;;-3.00;71.49
21821;BME280;11073;48.586;12.066;2022-12-18T06:56:08;97762.53;;;-3.01;71.60
21821;BME280;11073;48.586;12.066;2022-12-18T06:58:37;97772.78;;;-2.96;71.72
21821;BME280;11073;48.586;12.066;2022-12-18T07:01:07;97763.09;;;-2.97;71.57
21821;BME280;11073;48.586;12.066;2022-12-18T07:03:38;97772.59;;;-2.84;71.63
21821;BME280;11073;48.586;12.066;2022-12-18T07:06:14;97779.00;;;-2.75;71.62
21821;BME280;11073;48.586;12.066;2022-12-18T07:08:44;97759.47;;;-2.85;71.49
21821;BME280;11073;48.586;12.066;2022-12-18T07:11:13;97773.81;;;-2.77;71.58
21821;BME280;11073;48.586;12.066;2022-12-18T07:13:42;97777.66;;;-2.69;71.63
21821;BME280;11073;48.586;12.066;2022-12-18T07:16:12;97785.59;;;-2.58;71.62
21821;BME280;11073;48.586;12.066;2022-12-18T07:18:50;97786.34;;;-2.67;71.42
21821;BME280;11073;48.586;12.066;2022-12-18T07:21:21;97762.25;;;-2.87;71.49
21821;BME280;11073;48.586;12.066;2022-12-18T07:23:50;97793.69;;;-2.71;71.35
21821;BME280;11073;48.586;12.066;2022-12-18T07:26:20;97661.19;;;-3.59;71.15
21821;BME280;11073;48.586;12.066;2022-12-18T07:28:50;97782.25;;;-2.83;71.39
21821;BME280;11073;48.586;12.066;2022-12-18T07:31:20;97785.75;;;-2.82;71.33
21821;BME280;11073;48.586;12.066;2022-12-18T07:33:50;97787.06;;;-2.77;71.46
21821;BME280;11073;48.586;12.066;2022-12-18T07:36:20;97788.88;;;-2.77;71.37
21821;BME280;11073;48.586;12.066;2022-12-18T07:38:50;97779.59;;;-2.83;71.30
21821;BME280;11073;48.586;12.066;2022-12-18T07:41:19;97774.53;;;-2.86;71.41
21821;BME280;11073;48.586;12.066;2022-12-18T07:43:48;97795.75;;;-2.74;71.43
21821;BME280;11073;48.586;12.066;2022-12-18T07:46:17;97796.25;;;-2.81;71.43
21821;BME280;11073;48.586;12.066;2022-12-18T07:48:46;97802.03;;;-2.87;71.47
21821;BME280;11073;48.586;12.066;2022-12-18T07:51:17;97807.91;;;-2.83;71.57
21821;BME280;11073;48.586;12.066;2022-12-18T07:53:47;97795.13;;;-2.78;71.66
21821;BME280;11073;48.586;12.066;2022-12-18T07:56:18;97787.19;;;-2.78;71.59
21821;BME280;11073;48.586;12.066;2022-12-18T07:58:58;97780.34;;;-2.92;71.44
21821;BME280;11073;48.586;12.066;2022-12-18T08:01:27;97796.81;;;-2.77;71.40
21821;BME280;11073;48.586;12.066;2022-12-18T08:03:56;97797.56;;;-2.75;71.47
21821;BME280;11073;48.586;12.066;2022-12-18T08:06:25;97796.22;;;-2.69;71.50
21821;BME280;11073;48.586;12.066;2022-12-18T08:08:56;97795.97;;;-2.66;71.47
21821;BME280;11073;48.586;12.066;2022-12-18T08:11:26;97791.38;;;-2.64;71.51
21821;BME280;11073;48.586;12.066;2022-12-18T08:13:55;97771.28;;;-2.78;71.45
21821;BME280;11073;48.586;12.066;2022-12-18T08:16:25;97785.94;;;-2.63;71.46
21821;BME280;11073;48.586;12.066;2022-12-18T08:18:54;97797.16;;;-2.59;71.46
21821;BME280;11073;48.586;12.066;2022-12-18T08:21:25;97795.34;;;-2.59;71.48
21821;BME280;11073;48.586;12.066;2022-12-18T08:23:57;97802.22;;;-2.56;71.62
21821;BME280;11073;48.586;12.066;2022-12-18T08:26:28;97799.97;;;-2.61;71.22
21821;BME280;11073;48.586;12.066;2022-12-18T08:28:58;97796.94;;;-2.67;71.36
21821;BME280;11073;48.586;12.066;2022-12-18T08:31:29;97810.91;;;-2.65;71.39
21821;BME280;11073;48.586;12.066;2022-12-18T08:33:58;97806.81;;;-2.69;71.31
21821;BME280;11073;48.586;12.066;2022-12-18T08:36:27;97820.31;;;-2.72;71.40
21821;BME280;11073;48.586;12.066;2022-12-18T08:38:57;97815.13;;;-2.63;71.46
21821;BME280;11073;48.586;12.066;2022-12-18T08:41:26;97822.22;;;-2.52;71.61
21821;BME280;11073;48.586;12.066;2022-12-18T08:43:55;97816.66;;;-2.49;71.44
21821;BME280;11073;48.586;12.066;2022-12-18T08:46:42;97818.22;;;-2.46;71.48
21821;BME280;11073;48.586;12.066;2022-12-18T08:49:11;97817.09;;;-2.33;71.52
21821;BME280;11073;48.586;12.066;2022-12-18T08:51:40;97823.00;;;-2.29;71.38
21821;BME280;11073;48.586;12.066;2022-12-18T08:54:11;97843.75;;;-2.23;71.38
21821;BME280;11073;48.586;12.066;2022-12-18T08:56:40;97848.94;;;-2.22;71.34
21821;BME280;11073;48.586;12.066;2022-12-18T08:59:09;97860.22;;;-2.08;71.40
21821;BME280;11073;48.586;12.066;2022-12-18T09:01:46;97866.03;;;-2.14;71.00
21821;BME280;11073;48.586;12.066;2022-12-18T09:04:15;97863.88;;;-2.20;70.83
21821;BME280;11073;48.586;12.066;2022-12-18T09:06:44;97857.38;;;-2.28;70.65
21821;BME280;11073;48.586;12.066;2022-12-18T09:09:15;97860.63;;;-2.24;70.75
21821;BME280;11073;48.586;12.066;2022-12-18T09:11:43;97834.38;;;-2.38;70.71
21821;BME280;11073;48.586;12.066;2022-12-18T09:14:12;97857.63;;;-2.31;70.54
21821;BME280;11073;48.586;12.066;2022-12-18T09:16:40;97827.63;;;-2.54;70.50
21821;BME280;11073;48.586;12.066;2022-12-18T09:19:10;97837.97;;;-2.39;70.80
21821;BME280;11073;48.586;12.066;2022-12-18T09:21:38;97835.31;;;-2.28;70.67
21821;BME280;11073;48.586;12.066;2022-12-18T09:24:16;97835.41;;;-2.18;70.64
21821;BME280;11073;48.586;12.066;2022-12-18T09:26:44;97833.84;;;-2.21;70.44
21821;BME280;11073;48.586;12.066;2022-12-18T09:29:14;97829.88;;;-2.27;70.51
21821;BME280;11073;48.586;12.066;2022-12-18T09:31:45;97832.88;;;-2.20;70.46
21821;BME280;11073;48.586;12.066;2022-12-18T09:34:13;97830.69;;;-2.15;70.37
21821;BME280;11073;48.586;12.066;2022-12-18T09:36:42;97829.84;;;-2.15;70.28
21821;BME280;11073;48.586;12.066;2022-12-18T09:39:13;97830.81;;;-2.16;70.10
21821;BME280;11073;48.586;12.066;2022-12-18T09:41:46;97820.84;;;-2.24;70.04
21821;BME280;11073;48.586;12.066;2022-12-18T09:44:22;97828.28;;;-2.18;70.21
21821;BME280;11073;48.586;12.066;2022-12-18T09:47:23;97824.06;;;-2.20;70.04
21821;BME280;11073;48.586;12.066;2022-12-18T09:49:56;97818.91;;;-2.22;70.12
21821;BME280;11073;48.586;12.066;2022-12-18T09:52:29;97830.91;;;-2.07;70.15
21821;BME280;11073;48.586;12.066;2022-12-18T09:55:05;97815.94;;;-2.08;70.07
21821;BME280;11073;48.586;12.066;2022-12-18T09:57:47;97813.88;;;-2.04;69.93
21821;BME280;11073;48.586;12.066;2022-12-18T10:00:20;97810.91;;;-1.90;70.00
21821;BME280;11073;48.586;12.066;2022-12-18T10:02:50;97810.16;;;-2.02;69.93
21821;BME280;11073;48.586;12.066;2022-12-18T10:05:29;97802.03;;;-2.00;69.90
21821;BME280;11073;48.586;12.066;2022-12-18T10:08:06;97807.19;;;-1.87;70.06
21821;BME280;11073;48.586;12.066;2022-12-18T10:10:39;97803.38;;;-1.74;70.02
21821;BME280;11073;48.586;12.066;2022-12-18T10:13:15;97798.16;;;-1.75;69.54
21821;BME280;11073;48.586;12.066;2022-12-18T10:15:57;97786.31;;;-1.92;69.28
21821;BME280;11073;48.586;12.066;2022-12-18T10:18:42;97795.19;;;-1.82;69.44
21821;BME280;11073;48.586;12.066;2022-12-18T10:21:21;97793.78;;;-1.86;69.38
21821;BME280;11073;48.586;12.066;2022-12-18T10:24:00;97793.06;;;-1.88;69.19
21821;BME280;11073;48.586;12.066;2022-12-18T10:26:31;97770.06;;;-1.99;69.17
21821;BME280;11073;48.586;12.066;2022-12-18T10:29:06;97775.84;;;-1.93;69.24
21821;BME280;11073;48.586;12.066;2022-12-18T10:31:36;97777.13;;;-1.88;69.38
21821;BME280;11073;48.586;12.066;2022-12-18T10:34:09;97757.75;;;-2.00;69.19
21821;BME280;11073;48.586;12.066;2022-12-18T10:36:38;97780.75;;;-1.89;69.24
21821;BME280;11073;48.586;12.066;2022-12-18T10:39:14;97770.53;;;-1.93;69.21
21821;BME280;11073;48.586;12.066;2022-12-18T10:41:43;97777.84;;;-1.86;69.29
21821;BME280;11073;48.586;12.066;2022-12-18T10:44:16;97775.06;;;-1.84;69.29
21821;BME280;11073;48.586;12.066;2022-12-18T10:46:46;97783.88;;;-1.84;69.09
21821;BME280;11073;48.586;12.066;2022-12-18T10:49:23;97786.16;;;-1.79;69.09
21821;BME280;11073;48.586;12.066;2022-12-18T10:52:04;97759.50;;;-1.89;68.93
21821;BME280;11073;48.586;12.066;2022-12-18T10:54:34;97771.94;;;-1.69;69.25
21821;BME280;11073;48.586;12.066;2022-12-18T10:57:27;97781.03;;;-1.50;69.35
21821;BME280;11073;48.586;12.066;2022-12-18T11:00:18;97779.38;;;-1.42;69.18
21821;BME280;11073;48.586;12.066;2022-12-18T11:02:49;97766.06;;;-1.51;69.12
21821;BME280;11073;48.586;12.066;2022-12-18T11:05:29;97758.09;;;-1.51;69.09
21821;BME280;11073;48.586;12.066;2022-12-18T11:07:59;97775.84;;;-1.52;68.89
21821;BME280;11073;48.586;12.066;2022-12-18T11:10:31;97769.59;;;-1.41;69.00
21821;BME280;11073;48.586;12.066;2022-12-18T11:13:11;97769.13;;;-1.46;68.79
21821;BME280;11073;48.586;12.066;2022-12-18T11:15:42;97774.63;;;-1.38;68.73
21821;BME280;11073;48.586;12.066;2022-12-18T11:18:17;97780.09;;;-1.40;68.63
21821;BME280;11073;48.586;12.066;2022-12-18T11:20:52;97781.25;;;-1.32;68.70
21821;BME280;11073;48.586;12.066;2022-12-18T11:23:26;97792.19;;;-1.26;68.47
21821;BME280;11073;48.586;12.066;2022-12-18T11:25:57;97796.84;;;-1.18;68.33
21821;BME280;11073;48.586;12.066;2022-12-18T11:28:29;97806.56;;;-1.07;68.47
21821;BME280;11073;48.586;12.066;2022-12-18T11:31:28;97798.13;;;-1.13;68.10
21821;BME280;11073;48.586;12.066;2022-12-18T11:34:02;97781.38;;;-1.34;68.00
21821;BME280;11073;48.586;12.066;2022-12-18T11:36:53;97786.88;;;-1.26;68.23
21821;BME280;11073;48.586;12.066;2022-12-18T11:39:30;97784.91;;;-1.24;68.23
21821;BME280;11073;48.586;12.066;2022-12-18T11:42:08;97775.88;;;-1.21;68.13
21821;BME280;11073;48.586;12.066;2022-12-18T11:44:44;97779.59;;;-1.24;68.04
21821;BME280;11073;48.586;12.066;2022-12-18T11:47:26;97781.03;;;-1.20;67.88
21821;BME280;11073;48.586;12.066;2022-12-18T11:50:00;97770.97;;;-1.16;67.79
21821;BME280;11073;48.586;12.066;2022-12-18T11:52:34;97772.25;;;-1.11;67.75
21821;BME280;11073;48.586;12.066;2022-12-18T11:55:11;97772.72;;;-1.05;67.59
21821;BME280;11073;48.586;12.066;2022-12-18T11:57:46;97767.47;;;-1.17;67.47
21821;BME280;11073;48.586;12.066;2022-12-18T12:00:19;97761.97;;;-1.25;67.34
21821;BME280;11073;48.586;12.066;2022-12-18T12:06:01;97756.59;;;-1.44;67.35
21821;BME280;11073;48.586;12.066;2022-12-18T12:08:41;97770.31;;;-1.39;67.29
21821;BME280;11073;48.586;12.066;2022-12-18T12:11:20;97764.75;;;-1.36;67.36
21821;BME280;11073;48.586;12.066;2022-12-18T12:14:00;97766.97;;;-1.31;67.35
21821;BME280;11073;48.586;12.066;2022-12-18T12:16:37;97755.66;;;-1.33;67.42
21821;BME280;11073;48.586;12.066;2022-12-18T12:19:22;97748.81;;;-1.36;67.15
21821;BME280;11073;48.586;12.066;2022-12-18T12:21:59;97724.47;;;-1.62;67.13
21821;BME280;11073;48.586;12.066;2022-12-18T12:24:41;97749.47;;;-1.64;67.02
21821;BME280;11073;48.586;12.066;2022-12-18T12:27:19;97743.81;;;-1.50;67.22
21821;BME280;11073;48.586;12.066;2022-12-18T12:30:02;97738.09;;;-1.46;67.15
21821;BME280;11073;48.586;12.066;2022-12-18T12:32:54;97733.84;;;-1.37;67.06
21821;BME280;11073;48.586;12.066;2022-12-18T12:35:38;97727.41;;;-1.34;67.08
21821;BME280;11073;48.586;12.066;2022-12-18T12:38:14;97733.88;;;-1.27;66.94
21821;BME280;11073;48.586;12.066;2022-12-18T12:40:48;97742.72;;;-1.17;66.77
21821;BME280;11073;48.586;12.066;2022-12-18T12:43:35;97741.88;;;-1.18;66.65
21821;BME280;11073;48.586;12.066;2022-12-18T12:46:17;97738.44;;;-1.08;66.62
21821;BME280;11073;48.586;12.066;2022-12-18T12:48:51;97738.06;;;-1.25;66.42
21821;BME280;11073;48.586;12.066;2022-12-18T12:51:25;97731.19;;;-1.37;66.58
21821;BME280;11073;48.586;12.066;2022-12-18T12:53:57;97727.25;;;-1.33;66.76
21821;BME280;11073;48.586;12.066;2022-12-18T12:56:32;97738.50;;;-1.20;66.76
21821;BME280;11073;48.586;12.066;2022-12-18T12:59:12;97745.47;;;-1.28;66.68
21821;BME280;11073;48.586;12.066;2022-12-18T13:01:49;97727.44;;;-1.25;66.85
21821;BME280;11073;48.586;12.066;2022-12-18T13:04:27;97748.19;;;-1.09;66.57
21821;BME280;11073;48.586;12.066;2022-12-18T13:07:05;97742.47;;;-1.14;66.47
21821;BME280;11073;48.586;12.066;2022-12-18T13:12:53;97747.63;;;-1.43;66.03
21821;BME280;11073;48.586;12.066;2022-12-18T13:15:34;97733.44;;;-1.53;66.17
21821;BME280;11073;48.586;12.066;2022-12-18T13:18:13;97753.84;;;-1.54;66.33
21821;BME280;11073;48.586;12.066;2022-12-18T13:20:44;97759.34;;;-1.46;66.48
21821;BME280;11073;48.586;12.066;2022-12-18T13:23:31;97738.34;;;-1.58;66.64
21821;BME280;11073;48.586;12.066;2022-12-18T13:29:03;97747.22;;;-1.39;66.58